createdAt,value
2023-05-14T00:02:04.499Z,24.25
2023-05-14T00:04:32.649Z,31.38
2023-05-14T00:07:00.964Z,29.90
2023-05-14T00:09:30.518Z,23.83
2023-05-14T00:11:58.598Z,24.75
2023-05-14T00:14:26.668Z,31.00
2023-05-14T00:16:54.701Z,28.02
2023-05-14T00:19:22.730Z,21.08
2023-05-14T00:21:50.769Z,20.15
2023-05-14T00:24:18.697Z,24.85
2023-05-14T00:26:49.083Z,28.95
2023-05-14T00:29:17.193Z,26.40
2023-05-14T00:31:45.295Z,23.40
2023-05-14T00:34:13.437Z,20.00
2023-05-14T00:36:41.400Z,26.85
2023-05-14T00:39:09.517Z,22.67
2023-05-14T00:41:37.601Z,23.80
2023-05-14T00:44:07.097Z,29.00
2023-05-14T00:46:35.250Z,27.48
2023-05-14T00:49:03.395Z,29.10
2023-05-14T00:51:31.766Z,20.52
2023-05-14T00:54:00.002Z,23.67
2023-05-14T00:56:29.159Z,33.72
2023-05-14T00:58:57.161Z,23.60
2023-05-14T01:01:28.588Z,33.88
2023-05-14T01:03:58.182Z,24.67
2023-05-14T01:06:35.785Z,17.60
2023-05-14T01:09:09.930Z,19.80
2023-05-14T01:11:44.565Z,21.00
2023-05-14T01:14:19.206Z,19.67
2023-05-14T01:16:50.701Z,22.77
2023-05-14T01:19:27.881Z,23.45
2023-05-14T01:21:57.387Z,22.48
2023-05-14T01:24:25.335Z,26.00
2023-05-14T01:26:54.869Z,15.63
2023-05-14T01:29:24.262Z,18.35
2023-05-14T01:31:54.618Z,12.35
2023-05-14T01:34:25.548Z,12.30
2023-05-14T01:36:54.537Z,12.50
2023-05-14T01:39:25.065Z,13.00
2023-05-14T01:41:53.475Z,21.75
2023-05-14T01:44:22.561Z,17.92
2023-05-14T01:46:50.694Z,17.98
2023-05-14T01:49:19.753Z,16.58
2023-05-14T01:51:47.837Z,16.52
2023-05-14T01:54:15.798Z,12.98
2023-05-14T01:56:45.174Z,11.20
2023-05-14T01:59:13.260Z,13.50
2023-05-14T02:01:41.399Z,16.63
2023-05-14T02:04:09.862Z,10.27
2023-05-14T02:06:37.873Z,12.25
2023-05-14T02:09:06.251Z,13.90
2023-05-14T02:11:34.717Z,8.82
2023-05-14T02:14:05.108Z,19.85
2023-05-14T02:16:33.162Z,20.42
2023-05-14T02:19:01.256Z,20.65
2023-05-14T02:21:49.501Z,20.52
2023-05-14T02:24:17.719Z,11.85
2023-05-14T02:26:45.796Z,12.52
2023-05-14T02:29:15.310Z,10.77
2023-05-14T02:31:43.619Z,10.55
2023-05-14T02:34:11.797Z,13.45
2023-05-14T02:36:40.115Z,10.38
2023-05-14T02:39:08.102Z,11.65
2023-05-14T02:41:36.037Z,11.38
2023-05-14T02:44:04.091Z,11.85
2023-05-14T02:46:33.717Z,12.70
2023-05-14T02:49:03.186Z,9.63
2023-05-14T02:51:31.437Z,14.80
2023-05-14T02:53:59.378Z,11.93
2023-05-14T02:56:27.557Z,10.43
2023-05-14T02:58:55.615Z,11.70
2023-05-14T03:01:24.343Z,12.13
2023-05-14T03:03:54.218Z,15.38
2023-05-14T03:06:22.293Z,14.95
2023-05-14T03:08:50.609Z,13.90
2023-05-14T03:11:18.761Z,15.40
2023-05-14T03:13:46.790Z,10.63
2023-05-14T03:16:14.802Z,11.90
2023-05-14T03:18:42.945Z,14.05
2023-05-14T03:21:12.428Z,16.55
2023-05-14T03:23:40.592Z,10.07
2023-05-14T03:26:08.604Z,10.27
2023-05-14T03:28:36.652Z,11.35
2023-05-14T03:31:04.979Z,13.23
2023-05-14T03:33:33.107Z,11.65
2023-05-14T03:36:01.104Z,25.10
2023-05-14T03:38:30.477Z,9.60
2023-05-14T03:40:58.924Z,13.00
2023-05-14T03:43:27.500Z,11.45
2023-05-14T03:45:56.185Z,14.32
2023-05-14T03:48:24.411Z,13.00
2023-05-14T03:50:52.553Z,14.45
2023-05-14T03:53:20.622Z,15.85
2023-05-14T03:55:50.121Z,15.40
2023-05-14T03:58:18.229Z,10.05
2023-05-14T04:00:46.229Z,12.23
2023-05-14T04:03:14.318Z,10.75
2023-05-14T04:05:42.490Z,8.65
2023-05-14T04:08:10.630Z,12.23
2023-05-14T04:10:38.749Z,3.90
2023-05-14T04:13:08.154Z,9.85
2023-05-14T04:15:40.044Z,6.47
2023-05-14T04:18:09.246Z,6.78
2023-05-14T04:20:37.815Z,9.05
2023-05-14T04:23:06.541Z,5.45
2023-05-14T04:25:34.601Z,7.38
2023-05-14T04:28:02.663Z,4.22
2023-05-14T04:30:32.172Z,7.72
2023-05-14T04:33:00.504Z,12.13
2023-05-14T04:35:28.477Z,5.85
2023-05-14T04:37:56.691Z,8.63
2023-05-14T04:40:25.000Z,5.20
2023-05-14T04:42:53.246Z,4.75
2023-05-14T04:45:21.439Z,6.32
2023-05-14T04:47:51.429Z,6.55
2023-05-14T04:50:19.640Z,4.63
2023-05-14T04:52:47.626Z,7.30
2023-05-14T04:55:15.689Z,5.40
2023-05-14T04:57:43.808Z,6.22
2023-05-14T05:00:13.261Z,5.68
2023-05-14T05:02:41.596Z,8.02
2023-05-14T05:05:11.640Z,5.40
2023-05-14T05:07:39.759Z,4.18
2023-05-14T05:10:09.311Z,6.63
2023-05-14T05:12:37.441Z,5.47
2023-05-14T05:15:06.322Z,4.38
2023-05-14T05:17:34.662Z,6.35
2023-05-14T05:20:03.970Z,4.47
2023-05-14T05:22:33.501Z,4.60
2023-05-14T05:25:01.497Z,7.95
2023-05-14T05:27:31.108Z,7.00
2023-05-14T05:29:59.324Z,8.20
2023-05-14T05:32:27.537Z,5.10
2023-05-14T05:34:55.746Z,2.58
2023-05-14T05:37:23.884Z,7.28
2023-05-14T05:39:54.496Z,5.15
2023-05-14T05:42:22.591Z,4.70
2023-05-14T05:44:50.674Z,7.75
2023-05-14T05:47:18.918Z,5.90
2023-05-14T05:49:47.065Z,3.47
2023-05-14T05:52:15.049Z,3.67
2023-05-14T05:54:43.039Z,7.45
2023-05-14T05:57:12.542Z,6.47
2023-05-14T05:59:40.516Z,5.28
2023-05-14T06:02:08.671Z,5.45
2023-05-14T06:04:36.762Z,4.85
2023-05-14T06:07:05.090Z,6.30
2023-05-14T06:09:33.143Z,7.13
2023-05-14T06:12:01.282Z,8.60
2023-05-14T06:14:30.600Z,6.20
2023-05-14T06:16:58.734Z,5.93
2023-05-14T06:19:26.849Z,4.05
2023-05-14T06:21:54.875Z,11.20
2023-05-14T06:24:22.848Z,5.15
2023-05-14T06:26:50.902Z,7.70
2023-05-14T06:29:18.878Z,4.15
2023-05-14T06:31:48.509Z,7.65
2023-05-14T06:34:16.761Z,7.38
2023-05-14T06:36:44.888Z,5.93
2023-05-14T06:39:12.907Z,5.15
2023-05-14T06:41:40.924Z,5.57
2023-05-14T06:44:11.094Z,6.65
2023-05-14T06:46:39.190Z,7.85
2023-05-14T06:49:08.619Z,7.90
2023-05-14T06:51:36.850Z,5.40
2023-05-14T06:54:05.098Z,14.82
2023-05-14T06:56:33.212Z,7.80
2023-05-14T06:59:01.262Z,7.47
2023-05-14T07:01:30.461Z,11.50
2023-05-14T07:03:58.542Z,9.07
2023-05-14T07:06:28.011Z,9.10
2023-05-14T07:08:56.156Z,12.70
2023-05-14T07:11:24.152Z,11.27
2023-05-14T07:13:52.258Z,12.02
2023-05-14T07:16:20.804Z,5.57
2023-05-14T07:18:48.816Z,10.48
2023-05-14T07:21:16.845Z,9.27
2023-05-14T07:23:46.303Z,9.10
2023-05-14T07:26:14.335Z,7.75
2023-05-14T07:28:43.189Z,8.73
2023-05-14T07:31:11.359Z,11.32
2023-05-14T07:33:39.520Z,6.93
2023-05-14T07:36:08.923Z,7.03
2023-05-14T07:38:37.011Z,10.55
2023-05-14T07:41:06.593Z,7.00
2023-05-14T07:43:34.636Z,9.40
2023-05-14T07:46:02.797Z,8.90
2023-05-14T07:48:30.794Z,10.45
2023-05-14T07:50:58.888Z,9.40
2023-05-14T07:53:26.942Z,12.10
2023-05-14T07:55:55.064Z,13.13
2023-05-14T07:58:25.186Z,14.05
2023-05-14T08:00:53.390Z,8.35
2023-05-14T08:03:21.591Z,5.10
2023-05-14T08:05:49.652Z,7.45
2023-05-14T08:08:17.809Z,7.65
2023-05-14T08:10:45.889Z,9.65
2023-05-14T08:13:14.065Z,7.47
2023-05-14T08:15:43.488Z,6.72
2023-05-14T08:18:11.564Z,12.20
2023-05-14T08:20:39.662Z,7.70
2023-05-14T08:23:08.414Z,10.13
2023-05-14T08:25:36.515Z,6.20
2023-05-14T08:28:05.171Z,6.47
2023-05-14T08:30:33.298Z,12.60
2023-05-14T08:33:02.817Z,13.90
2023-05-14T08:35:31.106Z,12.93
2023-05-14T08:37:59.138Z,10.40
2023-05-14T08:40:27.999Z,5.88
2023-05-14T08:42:57.928Z,10.05
2023-05-14T08:45:30.789Z,5.47
2023-05-14T08:48:00.540Z,8.10
2023-05-14T08:50:31.255Z,7.53
2023-05-14T08:52:59.896Z,10.10
2023-05-14T08:55:29.232Z,12.85
2023-05-14T08:57:57.264Z,10.85
2023-05-14T09:00:26.649Z,6.10
2023-05-14T09:02:56.312Z,12.00
2023-05-14T09:05:25.336Z,10.50
2023-05-14T09:07:54.760Z,6.82
2023-05-14T09:10:23.133Z,10.77
2023-05-14T09:12:51.688Z,6.22
2023-05-14T09:15:19.960Z,11.18
2023-05-14T09:17:49.287Z,10.55
2023-05-14T09:20:17.846Z,6.78
2023-05-14T09:22:45.923Z,9.68
2023-05-14T09:25:15.367Z,8.95
2023-05-14T09:27:43.497Z,15.88
2023-05-14T09:30:13.477Z,14.32
2023-05-14T09:32:44.030Z,8.63
2023-05-14T09:35:14.774Z,14.95
2023-05-14T09:37:43.940Z,10.05
2023-05-14T09:40:12.399Z,14.23
2023-05-14T09:42:42.037Z,11.73
2023-05-14T09:45:11.265Z,12.15
2023-05-14T09:47:40.869Z,8.93
2023-05-14T09:50:10.052Z,6.53
2023-05-14T09:52:38.454Z,9.93
2023-05-14T09:55:08.127Z,9.02
2023-05-14T09:57:36.626Z,10.52
2023-05-14T10:00:08.939Z,7.90
2023-05-14T10:02:40.648Z,12.95
2023-05-14T10:05:09.685Z,8.10
2023-05-14T10:07:41.635Z,11.77
2023-05-14T10:10:14.718Z,8.98
2023-05-14T10:12:45.203Z,8.85
2023-05-14T10:15:21.080Z,5.55
2023-05-14T10:17:54.731Z,7.13
2023-05-14T10:20:25.154Z,11.52
2023-05-14T10:22:53.647Z,5.18
2023-05-14T10:25:22.536Z,9.18
2023-05-14T10:27:51.118Z,7.68
2023-05-14T10:30:23.019Z,6.90
2023-05-14T10:35:25.402Z,7.35
2023-05-14T10:37:53.635Z,7.18
2023-05-14T10:40:26.077Z,5.82
2023-05-14T10:42:55.999Z,11.13
2023-05-14T10:45:25.732Z,6.55
2023-05-14T10:47:54.911Z,4.03
2023-05-14T10:50:23.718Z,8.52
2023-05-14T10:52:53.220Z,12.30
2023-05-14T10:55:22.901Z,8.55
2023-05-14T10:57:53.441Z,5.60
2023-05-14T11:00:21.613Z,4.88
2023-05-14T11:02:51.610Z,12.80
2023-05-14T11:05:19.723Z,6.22
2023-05-14T11:07:49.440Z,6.85
2023-05-14T11:10:19.165Z,6.95
2023-05-14T11:12:49.159Z,6.57
2023-05-14T11:15:18.897Z,8.18
2023-05-14T11:17:48.562Z,8.98
2023-05-14T11:20:19.266Z,6.97
2023-05-14T11:22:48.955Z,7.20
2023-05-14T11:25:18.382Z,6.82
2023-05-14T11:27:48.468Z,5.00
2023-05-14T11:30:17.538Z,4.72
2023-05-14T11:32:46.917Z,7.10
2023-05-14T11:35:15.694Z,6.25
2023-05-14T11:37:50.280Z,5.38
2023-05-14T11:40:18.662Z,6.50
2023-05-14T11:42:47.480Z,4.38
2023-05-14T11:45:25.436Z,5.30
2023-05-14T11:47:53.845Z,7.07
2023-05-14T11:50:22.980Z,7.78
2023-05-14T11:52:57.890Z,7.65
2023-05-14T11:55:26.195Z,13.82
2023-05-14T11:57:54.908Z,6.93
2023-05-14T12:00:24.745Z,9.13
2023-05-14T12:02:53.690Z,5.68
2023-05-14T12:05:21.936Z,5.45
2023-05-14T12:07:49.972Z,5.65
2023-05-14T12:10:19.401Z,6.70
2023-05-14T12:12:49.334Z,5.57
2023-05-14T12:15:18.149Z,8.70
2023-05-14T12:17:51.893Z,6.95
2023-05-14T12:20:20.332Z,8.00
2023-05-14T12:22:48.462Z,5.40
2023-05-14T12:25:16.463Z,10.27
2023-05-14T12:27:46.754Z,4.18
2023-05-14T12:35:14.945Z,5.55
2023-05-14T12:37:43.110Z,4.53
2023-05-14T12:40:11.755Z,7.75
2023-05-14T12:42:39.859Z,5.03
2023-05-14T12:45:09.935Z,4.75
2023-05-14T12:47:39.026Z,6.20
2023-05-14T12:50:08.408Z,4.82
2023-05-14T12:52:39.193Z,4.60
2023-05-14T12:55:09.471Z,4.93
2023-05-14T12:57:39.036Z,4.60
2023-05-14T13:00:21.186Z,5.55
2023-05-14T13:02:49.422Z,4.15
2023-05-14T13:05:17.504Z,7.90
2023-05-14T13:07:45.583Z,5.70
2023-05-14T13:10:13.568Z,4.10
2023-05-14T13:12:41.667Z,5.47
2023-05-14T13:15:12.193Z,8.13
2023-05-14T13:17:41.370Z,8.18
2023-05-14T13:20:10.480Z,8.68
2023-05-14T13:22:38.514Z,7.55
2023-05-14T13:25:07.487Z,5.63
2023-05-14T13:27:36.222Z,8.70
2023-05-14T13:30:04.747Z,6.32
2023-05-14T13:32:34.197Z,4.00
2023-05-14T13:35:02.457Z,9.57
2023-05-14T13:37:31.623Z,6.80
2023-05-14T13:39:59.677Z,7.38
2023-05-14T13:42:27.738Z,5.65
2023-05-14T13:44:56.369Z,12.52
2023-05-14T13:47:24.528Z,7.40
2023-05-14T13:49:54.597Z,8.27
2023-05-14T13:52:22.667Z,7.93
2023-05-14T13:54:50.962Z,8.70
2023-05-14T13:57:19.010Z,4.70
2023-05-14T13:59:47.785Z,6.65
2023-05-14T14:02:16.262Z,9.65
2023-05-14T14:04:44.391Z,4.30
2023-05-14T14:07:13.788Z,9.18
2023-05-14T14:09:41.776Z,7.28
2023-05-14T14:12:10.547Z,6.18
2023-05-14T14:14:38.599Z,7.30
2023-05-14T14:17:06.620Z,4.97
2023-05-14T14:19:34.710Z,4.03
2023-05-14T14:22:02.970Z,6.50
2023-05-14T14:24:32.546Z,4.15
2023-05-14T14:27:02.293Z,5.85
2023-05-14T14:29:31.235Z,5.25
2023-05-14T14:31:59.414Z,6.82
2023-05-14T14:34:27.726Z,4.93
2023-05-14T14:36:55.860Z,8.40
2023-05-14T14:39:25.418Z,4.97
2023-05-14T14:41:54.985Z,6.88
2023-05-14T14:44:23.216Z,5.78
2023-05-14T14:46:51.300Z,4.95
2023-05-14T14:49:19.299Z,5.10
2023-05-14T14:51:47.358Z,4.60
2023-05-14T14:54:15.502Z,6.72
2023-05-14T14:56:45.876Z,10.32
2023-05-14T14:59:15.289Z,6.28
2023-05-14T15:01:43.475Z,5.90
2023-05-14T15:04:11.606Z,6.32
2023-05-14T15:06:39.558Z,13.57
2023-05-14T15:09:09.251Z,7.28
2023-05-14T15:11:37.722Z,10.27
2023-05-14T15:14:05.849Z,12.40
2023-05-14T15:16:35.522Z,8.88
2023-05-14T15:19:03.867Z,6.80
2023-05-14T15:21:32.059Z,6.95
2023-05-14T15:24:00.113Z,9.50
2023-05-14T15:26:28.164Z,8.00
2023-05-14T15:28:56.233Z,6.63
2023-05-14T15:31:24.593Z,8.43
2023-05-14T15:33:56.026Z,8.45
2023-05-14T15:36:24.228Z,4.78
2023-05-14T15:38:52.280Z,5.40
2023-05-14T15:41:21.166Z,7.88
2023-05-14T15:43:49.421Z,7.47
2023-05-14T15:46:17.526Z,7.88
2023-05-14T15:48:45.564Z,5.20
2023-05-14T15:51:15.308Z,4.75
2023-05-14T15:53:43.314Z,6.93
2023-05-14T15:56:11.384Z,7.60
2023-05-14T15:58:39.456Z,6.57
2023-05-14T16:01:07.466Z,6.40
2023-05-14T16:03:35.678Z,5.45
2023-05-14T16:06:03.797Z,7.10
2023-05-14T16:08:33.146Z,5.85
2023-05-14T16:11:01.172Z,7.63
2023-05-14T16:13:29.224Z,6.03
2023-05-14T16:15:57.336Z,5.28
2023-05-14T16:18:25.870Z,5.18
2023-05-14T16:20:53.916Z,9.90
2023-05-14T16:23:21.975Z,5.68
2023-05-14T16:25:51.550Z,6.70
2023-05-14T16:28:19.691Z,9.48
2023-05-14T16:30:47.671Z,6.40
2023-05-14T16:33:16.424Z,4.70
2023-05-14T16:35:45.429Z,7.55
2023-05-14T16:38:14.036Z,6.53
2023-05-14T16:40:42.931Z,5.78
2023-05-14T16:43:12.791Z,6.50
2023-05-14T16:45:41.567Z,5.22
2023-05-14T16:48:09.777Z,9.80
2023-05-14T16:50:37.812Z,6.68
2023-05-14T16:53:05.848Z,7.20
2023-05-14T16:55:33.826Z,10.82
2023-05-14T16:58:01.917Z,11.63
2023-05-14T17:00:31.360Z,11.93
2023-05-14T17:02:59.412Z,5.80
2023-05-14T17:05:27.552Z,8.32
2023-05-14T17:07:56.760Z,8.43
2023-05-14T17:10:26.260Z,6.78
2023-05-14T17:12:54.426Z,8.98
2023-05-14T17:15:22.616Z,10.68
2023-05-14T17:17:52.265Z,15.32
2023-05-14T17:20:20.359Z,12.68
2023-05-14T17:22:48.480Z,20.45
2023-05-14T17:25:16.821Z,12.20
2023-05-14T17:27:44.868Z,11.38
2023-05-14T17:30:13.570Z,10.63
2023-05-14T17:32:41.816Z,10.27
2023-05-14T17:35:11.689Z,11.63
2023-05-14T17:37:42.865Z,9.95
2023-05-14T17:40:11.907Z,12.57
2023-05-14T17:42:40.051Z,13.43
2023-05-14T17:45:09.826Z,6.30
2023-05-14T17:47:37.913Z,10.63
2023-05-14T17:50:07.254Z,4.68
2023-05-14T17:52:36.635Z,5.55
2023-05-14T17:55:05.025Z,5.53
2023-05-14T17:57:33.085Z,9.13
2023-05-14T18:00:01.085Z,9.63
2023-05-14T18:02:29.208Z,13.93
2023-05-14T18:04:57.313Z,7.30
2023-05-14T18:07:25.420Z,9.43
2023-05-14T18:09:54.790Z,8.05
2023-05-14T18:12:22.796Z,7.55
2023-05-14T18:14:50.799Z,6.40
2023-05-14T18:17:19.034Z,5.47
2023-05-14T18:19:47.239Z,6.90
2023-05-14T18:22:15.577Z,9.35
2023-05-14T18:24:44.428Z,6.68
2023-05-14T18:27:14.000Z,5.78
2023-05-14T18:29:42.712Z,9.40
2023-05-14T18:32:10.826Z,10.32
2023-05-14T18:34:39.069Z,7.00
2023-05-14T18:37:07.800Z,9.50
2023-05-14T18:39:35.894Z,14.18
2023-05-14T18:42:03.984Z,13.73
2023-05-14T18:44:33.352Z,7.68
2023-05-14T18:47:01.352Z,10.93
2023-05-14T18:49:29.351Z,7.97
2023-05-14T18:51:57.387Z,6.93
2023-05-14T18:54:25.465Z,9.05
2023-05-14T18:56:53.459Z,12.38
2023-05-14T18:59:21.477Z,9.63
2023-05-14T19:01:51.381Z,11.35
2023-05-14T19:04:19.512Z,11.63
2023-05-14T19:06:47.577Z,7.47
2023-05-14T19:09:21.026Z,20.02
2023-05-14T19:11:49.253Z,10.43
2023-05-14T19:14:17.313Z,9.07
2023-05-14T19:16:45.399Z,13.68
2023-05-14T19:19:15.169Z,8.93
2023-05-14T19:21:43.361Z,9.65
2023-05-14T19:24:11.338Z,9.95
2023-05-14T19:26:39.486Z,8.38
2023-05-14T19:29:07.663Z,13.52
2023-05-14T19:31:35.736Z,8.48
2023-05-14T19:34:03.832Z,11.82
2023-05-14T19:36:33.452Z,8.05
2023-05-14T19:39:01.468Z,9.73
2023-05-14T19:41:29.823Z,9.32
2023-05-14T19:43:57.838Z,8.20
2023-05-14T19:46:25.886Z,6.78
2023-05-14T19:48:53.954Z,9.55
2023-05-14T19:51:21.972Z,11.13
2023-05-14T19:53:51.365Z,12.55
2023-05-14T19:56:19.400Z,9.32
2023-05-14T19:58:47.366Z,10.68
2023-05-14T20:01:15.501Z,11.57
2023-05-14T20:03:43.783Z,12.93
2023-05-14T20:06:12.348Z,13.48
2023-05-14T20:08:40.459Z,7.10
2023-05-14T20:11:09.896Z,16.05
2023-05-14T20:13:38.353Z,10.45
2023-05-14T20:16:06.841Z,16.05
2023-05-14T20:18:35.024Z,11.38
2023-05-14T20:21:03.856Z,9.40
2023-05-14T20:23:32.367Z,8.88
2023-05-14T20:26:01.864Z,8.00
2023-05-14T20:28:31.515Z,13.25
2023-05-14T20:31:00.319Z,11.05
2023-05-14T20:33:29.193Z,12.02
2023-05-14T20:35:57.368Z,10.23
2023-05-14T20:38:25.766Z,13.13
2023-05-14T20:40:53.810Z,26.05
2023-05-14T20:43:21.751Z,15.43
2023-05-14T20:45:51.101Z,9.05
2023-05-14T20:48:21.279Z,7.93
2023-05-14T20:50:49.333Z,14.63
2023-05-14T20:53:17.268Z,13.23
2023-05-14T20:55:45.656Z,12.63
2023-05-14T20:58:13.686Z,8.82
2023-05-14T21:00:41.743Z,9.63
2023-05-14T21:03:11.183Z,13.50
2023-05-14T21:05:41.458Z,14.07
2023-05-14T21:08:09.524Z,8.57
2023-05-14T21:10:37.522Z,14.93
2023-05-14T21:13:05.547Z,11.75
2023-05-14T21:15:33.768Z,13.07
2023-05-14T21:18:02.971Z,11.18
2023-05-14T21:20:32.485Z,8.90
2023-05-14T21:23:00.504Z,9.35
2023-05-14T21:25:28.478Z,9.05
2023-05-14T21:27:56.560Z,9.73
2023-05-14T21:30:24.524Z,12.43
2023-05-14T21:32:52.619Z,10.10
2023-05-14T21:35:20.700Z,13.10
2023-05-14T21:37:50.104Z,11.02
2023-05-14T21:40:18.222Z,13.32
2023-05-14T21:42:46.229Z,9.23
2023-05-14T21:45:14.327Z,9.70
2023-05-14T21:47:42.572Z,13.10
2023-05-14T21:50:11.034Z,14.63
2023-05-14T21:52:38.980Z,12.07
2023-05-14T21:55:09.263Z,9.30
2023-05-14T21:57:37.510Z,9.68
2023-05-14T22:00:08.335Z,9.63
2023-05-14T22:02:36.405Z,9.45
2023-05-14T22:05:05.240Z,15.80
2023-05-14T22:07:33.747Z,12.18
2023-05-14T22:10:01.824Z,11.23
2023-05-14T22:12:31.295Z,21.98
2023-05-14T22:14:59.385Z,12.75
2023-05-14T22:17:28.128Z,11.55
2023-05-14T22:19:56.295Z,12.60
2023-05-14T22:22:24.429Z,14.27
2023-05-14T22:24:52.568Z,11.30
2023-05-14T22:27:20.702Z,9.55
2023-05-14T22:29:50.068Z,12.48
2023-05-14T22:32:18.156Z,13.52
2023-05-14T22:34:46.130Z,22.25
2023-05-14T22:37:14.093Z,15.38
2023-05-14T22:39:42.115Z,14.27
2023-05-14T22:42:10.117Z,12.55
2023-05-14T22:44:38.198Z,13.82
2023-05-14T22:47:07.828Z,16.75
2023-05-14T22:49:35.876Z,12.23
2023-05-14T22:52:03.924Z,13.90
2023-05-14T22:54:32.022Z,17.75
2023-05-14T22:57:00.125Z,21.15
2023-05-14T22:59:28.133Z,15.38
2023-05-14T23:01:56.268Z,18.35
2023-05-14T23:04:26.239Z,10.63
2023-05-14T23:06:54.357Z,15.50
2023-05-14T23:09:22.329Z,14.07
2023-05-14T23:11:50.342Z,9.82
2023-05-14T23:14:18.766Z,12.35
2023-05-14T23:16:46.833Z,13.52
2023-05-14T23:19:15.044Z,19.58
2023-05-14T23:21:44.563Z,15.73
2023-05-14T23:24:15.939Z,15.63
2023-05-14T23:26:44.110Z,11.50
2023-05-14T23:29:12.275Z,16.92
2023-05-14T23:31:41.116Z,12.68
2023-05-14T23:34:09.245Z,12.95
2023-05-14T23:36:37.722Z,25.10
2023-05-14T23:39:07.154Z,11.88
2023-05-14T23:41:35.256Z,14.07
2023-05-14T23:44:03.479Z,12.43
2023-05-14T23:46:31.765Z,10.07
2023-05-14T23:49:00.026Z,17.27
2023-05-14T23:51:28.379Z,11.60
2023-05-14T23:53:58.671Z,14.77
2023-05-14T23:56:29.168Z,8.60
2023-05-14T23:58:57.587Z,15.50
